Time;durP1;ratioP1;P1;durP2;ratioP2;P2;SDS_P1;SDS_P2;PMS_P1;PMS_P2;Temp;Humidity;BMP_temperature;BMP_pressure;BME280_temperature;BME280_humidity;BME280_pressure;Samples;Min_cycle;Max_cycle;Signal;HPM_P1;HPM_P2
2022/05/07 00:01:56;;;;;;;25.87;16.73;;;;;;;;;;5049432;28;20727;-72
2022/05/07 00:04:22;;;;;;;27.92;18.05;;;;;;;;;;5048874;28;20302;-70
2022/05/07 00:06:47;;;;;;;25.73;17.63;;;;;;;;;;5047328;28;20029;-72
2022/05/07 00:09:12;;;;;;;26.38;18.30;;;;;;;;;;5048350;28;20477;-72
2022/05/07 00:11:38;;;;;;;25.60;16.23;;;;;;;;;;5045470;28;20029;-72
2022/05/07 00:14:03;;;;;;;39.08;17.80;;;;;;;;;;5044957;28;20267;-70
2022/05/07 00:19:12;;;;;;;31.90;17.23;;;;;;;;;;5047613;28;20113;-71
2022/05/07 00:21:37;;;;;;;29.98;18.67;;;;;;;;;;5050202;28;20100;-72
2022/05/07 00:24:03;;;;;;;27.57;18.40;;;;;;;;;;5046267;28;20071;-70
2022/05/07 00:26:28;;;;;;;27.42;17.92;;;;;;;;;;5048582;28;20318;-72
2022/05/07 00:28:54;;;;;;;26.02;16.40;;;;;;;;;;5044578;28;20099;-72
2022/05/07 00:31:19;;;;;;;29.80;18.15;;;;;;;;;;5049607;28;20055;-72
2022/05/07 00:33:45;;;;;;;26.85;18.67;;;;;;;;;;5048157;28;20449;-71
2022/05/07 00:36:10;;;;;;;31.23;18.77;;;;;;;;;;5049031;28;20025;-73
2022/05/07 00:38:35;;;;;;;32.72;19.65;;;;;;;;;;5048194;28;20071;-72
2022/05/07 00:41:00;;;;;;;31.90;19.27;;;;;;;;;;5047970;28;20021;-72
2022/05/07 00:43:33;;;;;;;32.53;19.70;;;;;;;;;;5045949;28;20770;-72
2022/05/07 00:45:58;;;;;;;32.75;20.08;;;;;;;;;;5042136;28;20499;-69
2022/05/07 00:48:23;;;;;;;32.97;20.65;;;;;;;;;;5045986;28;20450;-71
2022/05/07 00:53:34;;;;;;;36.30;20.30;;;;;;;;;;5045333;28;20052;-72
2022/05/07 00:55:59;;;;;;;32.90;19.00;;;;;;;;;;5046484;28;20052;-71
2022/05/07 00:58:24;;;;;;;30.63;19.92;;;;;;;;;;5045704;28;20052;-72
2022/05/07 01:00:52;;;;;;;31.58;19.95;;;;;;;;;;5048617;28;20017;-72
2022/05/07 01:03:17;;;;;;;30.33;20.05;;;;;;;;;;5046966;28;20013;-72
2022/05/07 01:05:44;;;;;;;33.45;19.98;;;;;;;;;;5048325;28;20095;-72
2022/05/07 01:08:10;;;;;;;36.58;21.58;;;;;;;;;;5046152;28;20047;-72
2022/05/07 01:10:36;;;;;;;32.15;21.25;;;;;;;;;;5048796;28;20449;-72
2022/05/07 01:13:01;;;;;;;35.22;20.60;;;;;;;;;;5051773;28;20059;-72
2022/05/07 01:15:26;;;;;;;31.35;20.45;;;;;;;;;;5052124;28;20021;-69
2022/05/07 01:17:52;;;;;;;32.30;20.10;;;;;;;;;;5051422;28;20017;-72
2022/05/07 01:20:17;;;;;;;33.58;19.95;;;;;;;;;;5038121;28;20075;-70
2022/05/07 01:22:44;;;;;;;36.60;21.15;;;;;;;;;;5051970;28;20016;-71
2022/05/07 01:25:09;;;;;;;32.75;19.95;;;;;;;;;;5050898;28;20482;-68
2022/05/07 01:27:34;;;;;;;30.25;19.02;;;;;;;;;;5050779;28;20128;-72
2022/05/07 01:29:59;;;;;;;34.63;20.80;;;;;;;;;;5050045;28;20405;-71
2022/05/07 01:32:25;;;;;;;34.83;20.23;;;;;;;;;;5049163;28;20380;-72
2022/05/07 01:34:52;;;;;;;38.25;23.15;;;;;;;;;;5050860;28;20028;-71
2022/05/07 01:37:18;;;;;;;34.35;20.92;;;;;;;;;;5049233;28;20028;-72
2022/05/07 01:39:43;;;;;;;33.50;20.52;;;;;;;;;;5049288;28;20019;-71
2022/05/07 01:42:09;;;;;;;36.97;21.10;;;;;;;;;;5049725;28;20028;-72
2022/05/07 01:44:34;;;;;;;32.20;20.13;;;;;;;;;;5049580;28;20021;-72
2022/05/07 01:49:43;;;;;;;42.53;21.92;;;;;;;;;;5048959;28;20416;-72
2022/05/07 01:52:09;;;;;;;37.00;22.52;;;;;;;;;;5048730;28;20021;-72
2022/05/07 01:54:34;;;;;;;35.25;21.00;;;;;;;;;;5050146;28;20036;-72
2022/05/07 01:56:59;;;;;;;38.17;22.38;;;;;;;;;;5049829;28;20102;-72
2022/05/07 01:59:24;;;;;;;33.50;20.67;;;;;;;;;;5051031;28;20028;-72
2022/05/07 02:01:50;;;;;;;33.58;20.70;;;;;;;;;;5050218;28;20100;-72
2022/05/07 02:04:15;;;;;;;40.33;21.57;;;;;;;;;;5051276;28;20023;-72
2022/05/07 02:06:40;;;;;;;32.67;20.37;;;;;;;;;;5049053;28;20275;-70
2022/05/07 02:09:05;;;;;;;33.93;21.47;;;;;;;;;;5050184;28;20350;-72
2022/05/07 02:11:30;;;;;;;38.13;22.42;;;;;;;;;;5050230;28;20655;-71
2022/05/07 02:13:55;;;;;;;36.43;23.30;;;;;;;;;;5048889;28;20039;-72
2022/05/07 02:16:21;;;;;;;33.73;21.63;;;;;;;;;;5046966;28;20282;-71
2022/05/07 02:18:46;;;;;;;38.90;22.67;;;;;;;;;;5048245;28;20283;-72
2022/05/07 02:21:11;;;;;;;36.70;21.93;;;;;;;;;;5047729;28;20736;-72
2022/05/07 02:23:36;;;;;;;38.45;22.13;;;;;;;;;;5047579;28;20329;-72
2022/05/07 02:26:02;;;;;;;36.50;23.45;;;;;;;;;;5048357;28;20032;-72
2022/05/07 02:28:27;;;;;;;37.65;24.05;;;;;;;;;;5013570;28;1048586;-72
2022/05/07 02:30:52;;;;;;;32.88;20.95;;;;;;;;;;5048227;28;20112;-70
2022/05/07 02:33:18;;;;;;;37.25;22.73;;;;;;;;;;5049900;28;20032;-72
2022/05/07 02:35:43;;;;;;;40.17;22.42;;;;;;;;;;5049772;28;20100;-72
2022/05/07 02:38:08;;;;;;;35.10;22.77;;;;;;;;;;5050179;28;20268;-72
2022/05/07 02:42:33;;;;;;;35.50;22.40;;;;;;;;;;5049213;28;20024;-72
2022/05/07 02:43:19;;;;;;;40.53;21.92;;;;;;;;;;5048843;28;20513;-72
2022/05/07 02:45:44;;;;;;;41.40;22.60;;;;;;;;;;5048312;28;20053;-72
2022/05/07 02:48:09;;;;;;;38.85;22.05;;;;;;;;;;5049363;28;20068;-72
2022/05/07 02:50:34;;;;;;;36.67;22.20;;;;;;;;;;5049661;28;20071;-72
2022/05/07 02:52:59;;;;;;;40.13;23.27;;;;;;;;;;5048482;28;20275;-72
2022/05/07 02:55:25;;;;;;;46.57;26.20;;;;;;;;;;5049535;28;20305;-72
2022/05/07 02:57:51;;;;;;;40.47;24.88;;;;;;;;;;5050324;28;20367;-72
2022/05/07 03:00:16;;;;;;;34.90;22.73;;;;;;;;;;5048260;28;20021;-71
2022/05/07 03:02:41;;;;;;;38.90;23.25;;;;;;;;;;5049720;28;20017;-72
2022/05/07 03:05:07;;;;;;;38.67;22.77;;;;;;;;;;5048812;28;20099;-70
2022/05/07 03:07:32;;;;;;;37.15;22.52;;;;;;;;;;5046821;28;20272;-72
2022/05/07 03:09:57;;;;;;;38.57;24.53;;;;;;;;;;5049356;28;20036;-71
2022/05/07 03:12:23;;;;;;;39.50;22.83;;;;;;;;;;5048222;28;20369;-72
2022/05/07 03:14:48;;;;;;;38.33;23.42;;;;;;;;;;5048931;28;20267;-72
2022/05/07 03:17:13;;;;;;;47.13;24.03;;;;;;;;;;5042986;28;20114;-72
2022/05/07 03:19:38;;;;;;;39.37;22.33;;;;;;;;;;5046489;28;20301;-72
2022/05/07 03:22:04;;;;;;;42.17;22.97;;;;;;;;;;5048131;28;20264;-72
2022/05/07 03:24:29;;;;;;;41.10;24.40;;;;;;;;;;5049034;28;20751;-70
2022/05/07 03:26:54;;;;;;;37.78;24.67;;;;;;;;;;5049153;28;20574;-70
2022/05/07 03:29:19;;;;;;;42.03;25.40;;;;;;;;;;5045751;28;20033;-72
2022/05/07 03:31:48;;;;;;;39.45;24.70;;;;;;;;;;5048227;28;20025;-70
2022/05/07 03:34:13;;;;;;;44.15;24.27;;;;;;;;;;5047097;28;20031;-70
2022/05/07 03:36:39;;;;;;;42.10;24.57;;;;;;;;;;5048898;28;20029;-71
2022/05/07 03:39:04;;;;;;;40.97;24.80;;;;;;;;;;5035011;28;20272;-72
2022/05/07 03:41:30;;;;;;;39.78;24.02;;;;;;;;;;5044256;28;20108;-70
2022/05/07 03:43:55;;;;;;;43.10;25.20;;;;;;;;;;5044035;28;20013;-69
2022/05/07 03:46:21;;;;;;;43.83;24.93;;;;;;;;;;5046089;28;20049;-71
2022/05/07 03:48:46;;;;;;;39.35;23.77;;;;;;;;;;5046249;28;20283;-71
2022/05/07 03:51:12;;;;;;;48.70;26.60;;;;;;;;;;5046742;28;20024;-72
2022/05/07 03:53:37;;;;;;;42.17;24.47;;;;;;;;;;5045626;28;20075;-72
2022/05/07 03:56:03;;;;;;;48.40;26.27;;;;;;;;;;5046420;28;20279;-70
2022/05/07 03:58:29;;;;;;;43.17;25.33;;;;;;;;;;5046556;28;20460;-70
2022/05/07 04:00:55;;;;;;;43.72;23.80;;;;;;;;;;5042218;28;20049;-70
2022/05/07 04:03:20;;;;;;;41.75;24.50;;;;;;;;;;5045954;28;20093;-72
2022/05/07 04:05:46;;;;;;;48.35;26.10;;;;;;;;;;5046871;28;20107;-72
2022/05/07 04:08:12;;;;;;;46.92;26.05;;;;;;;;;;5047394;28;20025;-71
2022/05/07 04:10:37;;;;;;;45.53;26.58;;;;;;;;;;5045282;28;20025;-70
2022/05/07 04:13:03;;;;;;;44.13;25.38;;;;;;;;;;5045877;28;20071;-72
2022/05/07 04:15:28;;;;;;;44.72;25.35;;;;;;;;;;5043741;28;20094;-69
2022/05/07 04:17:53;;;;;;;40.20;25.37;;;;;;;;;;5045356;28;20083;-70
2022/05/07 04:20:18;;;;;;;44.70;24.77;;;;;;;;;;5044997;28;20787;-71
2022/05/07 04:22:43;;;;;;;41.33;25.65;;;;;;;;;;5048573;28;20049;-71
2022/05/07 04:25:10;;;;;;;45.15;25.75;;;;;;;;;;5047806;28;20485;-71
2022/05/07 04:27:35;;;;;;;47.83;24.98;;;;;;;;;;5047439;28;20082;-70
2022/05/07 04:30:01;;;;;;;45.93;27.10;;;;;;;;;;5047311;28;20028;-71
2022/05/07 04:32:27;;;;;;;52.28;26.27;;;;;;;;;;5047559;28;20275;-72
2022/05/07 04:34:52;;;;;;;43.33;25.55;;;;;;;;;;5048349;28;20013;-72
2022/05/07 04:37:17;;;;;;;44.40;26.52;;;;;;;;;;5048115;28;20028;-71
2022/05/07 04:39:42;;;;;;;44.42;25.50;;;;;;;;;;5048162;28;20032;-72
2022/05/07 04:42:08;;;;;;;47.88;26.65;;;;;;;;;;5048209;28;20044;-71
2022/05/07 04:44:33;;;;;;;44.90;26.38;;;;;;;;;;5048699;28;20108;-72
2022/05/07 04:46:58;;;;;;;51.20;26.13;;;;;;;;;;5051427;28;20064;-71
2022/05/07 04:49:23;;;;;;;48.13;27.07;;;;;;;;;;5049563;28;20068;-72
2022/05/07 04:51:50;;;;;;;41.80;26.55;;;;;;;;;;5050732;28;20283;-71
2022/05/07 04:54:16;;;;;;;44.85;26.35;;;;;;;;;;5050989;28;20033;-72
2022/05/07 04:56:41;;;;;;;45.83;28.02;;;;;;;;;;5051347;28;20033;-72
2022/05/07 04:59:06;;;;;;;45.47;27.60;;;;;;;;;;5052302;28;20027;-69
2022/05/07 05:01:32;;;;;;;53.15;28.67;;;;;;;;;;5049605;28;20974;-72
2022/05/07 05:03:57;;;;;;;41.80;26.13;;;;;;;;;;5050993;28;20024;-70
2022/05/07 05:06:22;;;;;;;53.60;28.70;;;;;;;;;;5051829;28;20420;-72
2022/05/07 05:08:47;;;;;;;42.17;25.73;;;;;;;;;;5034540;28;20305;-70
2022/05/07 05:11:12;;;;;;;48.53;25.52;;;;;;;;;;5049803;28;20355;-72
2022/05/07 05:13:38;;;;;;;47.50;27.03;;;;;;;;;;5050723;28;20056;-70
2022/05/07 05:16:03;;;;;;;44.63;25.73;;;;;;;;;;5050155;28;20290;-72
2022/05/07 05:18:28;;;;;;;49.20;27.17;;;;;;;;;;5051358;28;20279;-71
2022/05/07 05:20:53;;;;;;;47.17;27.30;;;;;;;;;;5050358;28;20031;-69
2022/05/07 05:23:19;;;;;;;44.67;25.57;;;;;;;;;;5051853;28;20063;-69
2022/05/07 05:25:45;;;;;;;45.93;26.50;;;;;;;;;;5050682;28;20798;-68
2022/05/07 05:28:11;;;;;;;45.17;26.98;;;;;;;;;;5083268;22;20306;-70
2022/05/07 05:30:37;;;;;;;44.15;25.92;;;;;;;;;;5065651;28;20032;-70
2022/05/07 05:33:02;;;;;;;43.42;25.63;;;;;;;;;;5071003;28;20021;-70
2022/05/07 05:35:27;;;;;;;44.53;26.50;;;;;;;;;;5069373;28;20023;-70
2022/05/07 05:37:54;;;;;;;45.33;25.60;;;;;;;;;;5071767;28;20039;-70
2022/05/07 05:40:19;;;;;;;44.63;25.50;;;;;;;;;;5071161;28;20355;-69
2022/05/07 05:42:45;;;;;;;47.47;27.08;;;;;;;;;;5071199;28;20476;-70
2022/05/07 05:45:10;;;;;;;59.23;26.20;;;;;;;;;;5068730;28;20474;-71
2022/05/07 05:47:36;;;;;;;44.30;23.38;;;;;;;;;;5069697;28;20278;-69
2022/05/07 05:50:01;;;;;;;39.15;23.67;;;;;;;;;;5066940;28;20047;-70
2022/05/07 05:52:27;;;;;;;39.50;24.58;;;;;;;;;;5067525;28;20032;-71
2022/05/07 05:54:53;;;;;;;37.90;22.58;;;;;;;;;;5067177;28;20372;-70
2022/05/07 05:57:18;;;;;;;44.75;23.88;;;;;;;;;;5066354;28;20020;-70
2022/05/07 05:59:43;;;;;;;40.80;24.73;;;;;;;;;;5066897;28;20062;-71
2022/05/07 06:02:08;;;;;;;42.60;26.03;;;;;;;;;;5069930;28;20273;-70
2022/05/07 06:04:33;;;;;;;39.63;23.63;;;;;;;;;;5070409;28;20269;-72
2022/05/07 06:06:59;;;;;;;38.17;24.90;;;;;;;;;;5068407;28;20020;-68
2022/05/07 06:09:24;;;;;;;44.05;25.15;;;;;;;;;;5068271;28;20277;-70
2022/05/07 06:11:49;;;;;;;41.80;25.50;;;;;;;;;;5071954;28;20131;-70
2022/05/07 06:14:14;;;;;;;41.70;25.58;;;;;;;;;;5070772;28;20039;-69
2022/05/07 06:16:39;;;;;;;45.20;26.20;;;;;;;;;;5069680;28;20082;-69
2022/05/07 06:19:05;;;;;;;40.08;25.35;;;;;;;;;;5068967;28;20020;-70
2022/05/07 06:21:30;;;;;;;46.75;26.83;;;;;;;;;;5066836;28;20013;-69
2022/05/07 06:27:27;;;;;;;43.55;26.88;;;;;;;;;;5068151;28;20044;-69
2022/05/07 06:29:25;;;;;;;44.55;25.63;;;;;;;;;;5064602;28;20035;-67
2022/05/07 06:31:50;;;;;;;42.33;25.33;;;;;;;;;;5071149;28;20443;-70
2022/05/07 06:34:17;;;;;;;43.58;24.23;;;;;;;;;;5064210;28;20266;-71
2022/05/07 06:36:42;;;;;;;47.97;27.95;;;;;;;;;;5070080;28;20012;-70
2022/05/07 06:39:08;;;;;;;44.83;27.27;;;;;;;;;;5068814;28;20020;-72
2022/05/07 06:41:33;;;;;;;46.78;25.60;;;;;;;;;;5071477;28;20805;-70
2022/05/07 06:43:58;;;;;;;45.87;26.60;;;;;;;;;;5070410;28;20033;-70
2022/05/07 06:46:23;;;;;;;37.38;22.67;;;;;;;;;;5070673;28;20305;-70
2022/05/07 06:48:49;;;;;;;40.40;24.00;;;;;;;;;;5069910;28;20099;-70
2022/05/07 06:51:14;;;;;;;34.17;18.35;;;;;;;;;;5070946;28;20052;-69
2022/05/07 06:53:39;;;;;;;42.95;25.23;;;;;;;;;;5068711;28;20020;-69
2022/05/07 06:56:05;;;;;;;40.95;23.92;;;;;;;;;;5069985;28;20021;-69
2022/05/07 06:58:32;;;;;;;13.80;8.45;;;;;;;;;;5070128;28;20480;-69
2022/05/07 07:00:59;;;;;;;33.08;17.25;;;;;;;;;;5069928;28;20024;-70
2022/05/07 07:03:25;;;;;;;20.20;12.82;;;;;;;;;;5069905;28;20558;-69
2022/05/07 07:05:52;;;;;;;32.42;19.42;;;;;;;;;;5069498;28;20039;-69
2022/05/07 07:08:17;;;;;;;36.50;22.58;;;;;;;;;;5063939;28;20035;-71
2022/05/07 07:10:43;;;;;;;35.55;21.02;;;;;;;;;;5068719;28;20021;-70
2022/05/07 07:13:09;;;;;;;38.50;21.02;;;;;;;;;;5069428;28;20017;-70
2022/05/07 07:15:35;;;;;;;30.92;18.45;;;;;;;;;;5068172;28;20107;-70
2022/05/07 07:18:02;;;;;;;33.42;21.08;;;;;;;;;;5066545;28;20107;-69
2022/05/07 07:20:27;;;;;;;29.50;18.27;;;;;;;;;;5068007;28;20539;-70
2022/05/07 07:22:52;;;;;;;32.55;19.83;;;;;;;;;;5067479;28;20108;-69
2022/05/07 07:25:17;;;;;;;28.73;18.60;;;;;;;;;;5067812;28;20081;-69
2022/05/07 07:27:42;;;;;;;29.53;17.30;;;;;;;;;;5066633;28;20103;-69
2022/05/07 07:30:08;;;;;;;26.77;16.87;;;;;;;;;;5068729;28;20261;-69
2022/05/07 07:32:33;;;;;;;27.92;17.45;;;;;;;;;;5069261;28;20281;-69
2022/05/07 07:34:58;;;;;;;25.27;18.20;;;;;;;;;;5069950;28;20029;-69
2022/05/07 07:37:25;;;;;;;28.20;16.80;;;;;;;;;;5067561;28;20279;-69
2022/05/07 07:39:50;;;;;;;23.25;17.05;;;;;;;;;;5068688;28;20016;-69
2022/05/07 07:42:17;;;;;;;27.63;17.07;;;;;;;;;;5066969;28;20020;-69
2022/05/07 07:44:42;;;;;;;24.77;15.98;;;;;;;;;;5070408;28;20051;-69
2022/05/07 07:49:51;;;;;;;24.63;16.63;;;;;;;;;;5066736;28;20079;-71
2022/05/07 07:52:16;;;;;;;29.63;15.60;;;;;;;;;;5067249;28;20028;-70
2022/05/07 07:54:41;;;;;;;21.45;14.65;;;;;;;;;;5069464;28;20059;-69
2022/05/07 07:57:07;;;;;;;20.43;13.73;;;;;;;;;;5048303;28;20398;-69
2022/05/07 07:59:32;;;;;;;23.98;15.52;;;;;;;;;;5068303;28;20027;-70
2022/05/07 08:01:57;;;;;;;24.53;14.33;;;;;;;;;;5068332;28;20092;-70
2022/05/07 08:04:25;;;;;;;30.87;15.47;;;;;;;;;;5070803;28;20759;-70
2022/05/07 08:11:40;;;;;;;23.38;14.20;;;;;;;;;;5053863;28;20270;-70
2022/05/07 08:12:19;;;;;;;24.05;14.77;;;;;;;;;;5067967;28;20393;-69
2022/05/07 08:14:45;;;;;;;24.50;15.03;;;;;;;;;;5069130;28;20020;-69
2022/05/07 08:17:11;;;;;;;24.02;13.35;;;;;;;;;;5068373;28;20024;-69
2022/05/07 08:19:36;;;;;;;25.80;15.37;;;;;;;;;;5068789;28;20024;-69
2022/05/07 08:22:01;;;;;;;24.33;13.37;;;;;;;;;;5072740;28;20754;-69
2022/05/07 08:24:26;;;;;;;23.80;14.68;;;;;;;;;;5072225;28;20012;-69
2022/05/07 08:26:52;;;;;;;29.30;15.07;;;;;;;;;;5070663;28;20096;-70
2022/05/07 08:29:17;;;;;;;28.70;15.13;;;;;;;;;;5072322;28;20487;-70
2022/05/07 08:31:42;;;;;;;25.17;14.43;;;;;;;;;;5073193;28;20032;-70
2022/05/07 08:34:07;;;;;;;31.53;13.93;;;;;;;;;;5071589;28;20294;-71
2022/05/07 08:36:32;;;;;;;28.00;13.67;;;;;;;;;;5072642;28;20496;-71
2022/05/07 08:38:58;;;;;;;28.97;14.27;;;;;;;;;;5072287;28;20282;-70
2022/05/07 08:41:23;;;;;;;28.53;14.23;;;;;;;;;;5072440;28;20012;-70
2022/05/07 08:43:50;;;;;;;25.65;15.63;;;;;;;;;;5071013;28;20281;-70
2022/05/07 08:46:19;;;;;;;26.67;15.07;;;;;;;;;;5066866;28;20021;-70
2022/05/07 08:48:47;;;;;;;25.70;15.38;;;;;;;;;;5068189;28;20517;-70
2022/05/07 08:51:14;;;;;;;30.20;15.60;;;;;;;;;;5067775;28;20025;-70
2022/05/07 08:53:39;;;;;;;27.42;15.10;;;;;;;;;;5052846;28;20040;-70
2022/05/07 08:56:04;;;;;;;22.90;14.37;;;;;;;;;;5069937;28;20029;-70
2022/05/07 08:58:30;;;;;;;26.50;16.35;;;;;;;;;;5065143;28;20031;-70
2022/05/07 09:00:55;;;;;;;30.77;16.57;;;;;;;;;;5068855;28;20020;-70
2022/05/07 09:03:20;;;;;;;30.33;17.07;;;;;;;;;;5072124;28;20270;-71
2022/05/07 09:05:45;;;;;;;30.88;18.92;;;;;;;;;;5070479;28;20032;-70
2022/05/07 09:08:12;;;;;;;30.40;18.27;;;;;;;;;;5071963;28;20032;-70
2022/05/07 09:10:38;;;;;;;34.53;19.48;;;;;;;;;;5068963;28;20421;-70
2022/05/07 09:13:09;;;;;;;36.45;20.70;;;;;;;;;;5070917;28;20024;-72
2022/05/07 09:15:35;;;;;;;34.65;18.83;;;;;;;;;;5070201;28;20027;-69
2022/05/07 09:18:00;;;;;;;39.25;18.33;;;;;;;;;;5068844;28;20447;-70
2022/05/07 09:20:26;;;;;;;35.57;19.30;;;;;;;;;;5049849;28;20039;-70
2022/05/07 09:22:55;;;;;;;29.70;17.65;;;;;;;;;;5066806;28;20275;-70
2022/05/07 09:25:25;;;;;;;33.65;20.60;;;;;;;;;;5067458;28;20036;-68
2022/05/07 09:27:57;;;;;;;36.88;19.55;;;;;;;;;;5074738;28;20028;-70
2022/05/07 09:30:24;;;;;;;34.53;20.33;;;;;;;;;;5067742;28;20021;-70
2022/05/07 09:32:50;;;;;;;33.45;19.05;;;;;;;;;;5066713;28;20033;-69
2022/05/07 09:38:01;;;;;;;32.97;18.63;;;;;;;;;;5070910;28;20078;-70
2022/05/07 09:40:26;;;;;;;32.45;17.50;;;;;;;;;;5071902;28;20016;-70
2022/05/07 09:42:52;;;;;;;28.65;17.05;;;;;;;;;;5069834;28;20027;-71
2022/05/07 09:45:18;;;;;;;32.40;17.42;;;;;;;;;;5072310;28;20550;-69
2022/05/07 09:47:44;;;;;;;30.40;17.65;;;;;;;;;;5062229;28;20469;-71
2022/05/07 09:50:51;;;;;;;35.42;17.30;;;;;;;;;;5073958;28;20480;-70
2022/05/07 09:58:25;;;;;;;33.00;17.83;;;;;;;;;;5069796;28;20047;-70
2022/05/07 10:01:09;;;;;;;34.53;18.07;;;;;;;;;;5070301;28;20048;-70
2022/05/07 10:03:40;;;;;;;25.42;15.15;;;;;;;;;;5072132;28;20100;-70
2022/05/07 10:06:11;;;;;;;29.27;15.48;;;;;;;;;;5069633;28;20103;-69
2022/05/07 10:08:44;;;;;;;40.05;17.13;;;;;;;;;;5071306;28;20025;-69
2022/05/07 10:11:12;;;;;;;32.42;17.58;;;;;;;;;;5071347;28;20103;-69
2022/05/07 10:13:38;;;;;;;36.88;18.75;;;;;;;;;;5069966;28;20016;-69
2022/05/07 10:16:04;;;;;;;38.53;17.98;;;;;;;;;;5059974;28;20482;-69
2022/05/07 10:18:38;;;;;;;37.28;17.98;;;;;;;;;;5070714;28;20155;-70
2022/05/07 10:21:12;;;;;;;50.58;16.80;;;;;;;;;;5070169;28;20102;-70
2022/05/07 10:23:47;;;;;;;37.17;17.05;;;;;;;;;;5069337;28;20027;-70
2022/05/07 10:26:12;;;;;;;41.17;18.90;;;;;;;;;;5069660;28;20020;-70
2022/05/07 10:28:39;;;;;;;34.23;16.93;;;;;;;;;;5069808;28;20040;-69
2022/05/07 10:31:15;;;;;;;35.80;17.75;;;;;;;;;;5070239;28;20273;-70
2022/05/07 10:33:40;;;;;;;33.03;17.15;;;;;;;;;;5069859;28;20406;-70
2022/05/07 10:36:08;;;;;;;31.95;17.25;;;;;;;;;;5070598;28;20023;-69
2022/05/07 10:38:36;;;;;;;31.52;16.52;;;;;;;;;;5068091;28;20424;-70
2022/05/07 10:41:04;;;;;;;30.15;16.40;;;;;;;;;;5070050;28;20067;-71
2022/05/07 10:43:33;;;;;;;35.22;18.42;;;;;;;;;;5070699;28;20019;-71
2022/05/07 10:46:06;;;;;;;36.75;18.77;;;;;;;;;;5070006;28;20046;-71
2022/05/07 10:48:47;;;;;;;35.90;18.48;;;;;;;;;;5062358;28;20032;-70
2022/05/07 10:51:16;;;;;;;35.80;17.92;;;;;;;;;;5071140;28;20020;-71
2022/05/07 10:53:41;;;;;;;39.35;17.50;;;;;;;;;;5070991;28;20040;-71
2022/05/07 10:56:16;;;;;;;30.80;16.13;;;;;;;;;;5068010;28;20142;-71
2022/05/07 10:58:48;;;;;;;29.27;15.55;;;;;;;;;;5068344;28;20770;-70
2022/05/07 11:01:13;;;;;;;25.20;14.02;;;;;;;;;;5058917;28;20023;-71
2022/05/07 11:03:39;;;;;;;31.70;16.52;;;;;;;;;;5070706;28;20016;-71
2022/05/07 11:06:04;;;;;;;26.05;15.30;;;;;;;;;;5068839;28;20377;-70
2022/05/07 11:08:30;;;;;;;36.15;18.02;;;;;;;;;;5065013;28;20056;-70
2022/05/07 11:11:08;;;;;;;34.42;16.30;;;;;;;;;;5068633;28;20017;-71
2022/05/07 11:13:46;;;;;;;27.50;16.27;;;;;;;;;;5066703;28;20062;-70
2022/05/07 11:16:11;;;;;;;32.50;19.33;;;;;;;;;;5062628;28;20024;-70
2022/05/07 11:18:36;;;;;;;26.75;16.25;;;;;;;;;;5060759;28;20073;-69
2022/05/07 11:21:03;;;;;;;32.85;18.02;;;;;;;;;;5062642;28;20017;-70
2022/05/07 11:23:28;;;;;;;29.40;17.23;;;;;;;;;;5066577;28;20019;-69
2022/05/07 11:25:53;;;;;;;28.65;15.30;;;;;;;;;;5067774;28;20024;-70
2022/05/07 11:28:19;;;;;;;31.07;16.53;;;;;;;;;;5083879;22;20692;-71
2022/05/07 11:30:53;;;;;;;29.47;14.33;;;;;;;;;;5040331;28;20364;-70
2022/05/07 11:33:25;;;;;;;25.63;14.23;;;;;;;;;;5042390;28;20654;-69
2022/05/07 11:36:06;;;;;;;26.15;14.43;;;;;;;;;;5048163;28;20062;-71
2022/05/07 11:38:35;;;;;;;27.73;15.23;;;;;;;;;;5047890;28;20077;-70
2022/05/07 11:41:12;;;;;;;25.98;14.25;;;;;;;;;;5047308;28;20032;-71
2022/05/07 11:46:21;;;;;;;28.95;15.82;;;;;;;;;;5043949;28;20086;-72
2022/05/07 11:48:46;;;;;;;29.97;16.23;;;;;;;;;;5047946;28;20033;-70
2022/05/07 11:51:22;;;;;;;23.77;13.85;;;;;;;;;;5048600;28;20275;-72
2022/05/07 11:53:47;;;;;;;32.10;15.77;;;;;;;;;;5046409;28;20029;-71
2022/05/07 11:56:12;;;;;;;27.60;15.47;;;;;;;;;;5045554;28;20435;-72
2022/05/07 11:58:44;;;;;;;27.00;16.42;;;;;;;;;;5047560;28;20767;-70
2022/05/07 12:01:16;;;;;;;28.98;16.60;;;;;;;;;;5025083;28;20025;-72
2022/05/07 12:03:41;;;;;;;25.98;14.85;;;;;;;;;;5043858;28;20048;-74
2022/05/07 12:06:07;;;;;;;27.20;15.33;;;;;;;;;;5044510;28;20067;-72
2022/05/07 12:08:33;;;;;;;26.95;16.05;;;;;;;;;;5046248;28;20636;-72
2022/05/07 12:10:59;;;;;;;27.63;15.35;;;;;;;;;;5043650;28;20021;-71
2022/05/07 12:13:25;;;;;;;28.13;15.73;;;;;;;;;;5045787;28;20075;-71
2022/05/07 12:18:35;;;;;;;25.52;14.52;;;;;;;;;;5045421;28;20491;-71
2022/05/07 12:21:00;;;;;;;25.83;15.02;;;;;;;;;;5048280;28;20021;-70
2022/05/07 12:31:37;;;;;;;29.88;14.23;;;;;;;;;;5049448;28;20396;-71
2022/05/07 12:34:04;;;;;;;24.95;13.60;;;;;;;;;;5048500;28;20108;-70
2022/05/07 12:36:30;;;;;;;31.45;13.98;;;;;;;;;;5048902;28;20423;-69
2022/05/07 12:38:59;;;;;;;33.60;14.77;;;;;;;;;;5045406;28;20044;-71
2022/05/07 12:41:24;;;;;;;26.92;16.02;;;;;;;;;;5049340;28;20017;-69
2022/05/07 12:43:49;;;;;;;30.33;15.48;;;;;;;;;;5048985;28;20108;-71
2022/05/07 12:46:14;;;;;;;29.80;16.07;;;;;;;;;;5050486;28;20024;-69
2022/05/07 12:48:40;;;;;;;24.80;14.73;;;;;;;;;;5038702;28;20048;-70
2022/05/07 12:51:05;;;;;;;31.00;14.27;;;;;;;;;;5045632;28;20071;-69
2022/05/07 12:53:30;;;;;;;28.57;13.97;;;;;;;;;;5047097;28;20318;-69
2022/05/07 12:55:55;;;;;;;26.30;11.77;;;;;;;;;;5046855;28;20710;-71
2022/05/07 12:58:21;;;;;;;26.43;12.80;;;;;;;;;;5047235;28;20086;-72
2022/05/07 13:00:46;;;;;;;23.70;13.70;;;;;;;;;;5047305;28;20644;-69
2022/05/07 13:03:11;;;;;;;19.80;11.85;;;;;;;;;;5047918;28;20017;-72
2022/05/07 13:05:38;;;;;;;23.83;12.05;;;;;;;;;;5048036;28;20053;-70
2022/05/07 13:08:04;;;;;;;20.65;11.07;;;;;;;;;;5052777;28;20428;-70
2022/05/07 13:10:29;;;;;;;23.77;13.68;;;;;;;;;;5051185;28;20471;-73
2022/05/07 13:12:54;;;;;;;20.73;11.68;;;;;;;;;;5051323;28;20021;-71
2022/05/07 13:15:20;;;;;;;19.07;8.83;;;;;;;;;;5039946;28;20025;-70
2022/05/07 13:17:45;;;;;;;18.83;11.20;;;;;;;;;;5049729;28;20302;-70
2022/05/07 13:20:10;;;;;;;21.25;10.95;;;;;;;;;;5051850;28;20108;-70
2022/05/07 13:22:35;;;;;;;22.60;12.45;;;;;;;;;;5052313;28;20055;-70
2022/05/07 13:25:00;;;;;;;21.65;11.85;;;;;;;;;;5050821;28;20385;-70
2022/05/07 13:27:27;;;;;;;24.90;11.23;;;;;;;;;;5051519;28;20021;-70
2022/05/07 13:29:52;;;;;;;17.67;10.77;;;;;;;;;;5049014;28;20311;-70
2022/05/07 13:32:17;;;;;;;20.23;10.27;;;;;;;;;;5047342;28;20063;-72
2022/05/07 13:34:43;;;;;;;27.88;11.57;;;;;;;;;;5052770;28;20032;-70
2022/05/07 13:37:08;;;;;;;16.00;9.40;;;;;;;;;;5047268;28;20091;-72
2022/05/07 13:39:33;;;;;;;17.88;9.88;;;;;;;;;;5045242;28;20021;-72
2022/05/07 13:42:00;;;;;;;20.20;12.15;;;;;;;;;;5046978;28;20048;-72
2022/05/07 13:44:26;;;;;;;21.13;11.85;;;;;;;;;;5048622;28;20021;-72
2022/05/07 13:46:51;;;;;;;26.00;12.00;;;;;;;;;;5051411;28;20487;-72
2022/05/07 13:49:16;;;;;;;23.30;10.93;;;;;;;;;;5049994;28;20099;-72
2022/05/07 13:51:41;;;;;;;17.73;9.20;;;;;;;;;;5049290;28;20280;-72
2022/05/07 13:54:08;;;;;;;18.67;9.60;;;;;;;;;;5049263;28;20032;-73
2022/05/07 13:56:33;;;;;;;18.17;9.38;;;;;;;;;;5047733;28;20756;-71
2022/05/07 13:58:58;;;;;;;21.30;10.63;;;;;;;;;;5050159;28;20025;-72
2022/05/07 14:01:24;;;;;;;18.17;9.25;;;;;;;;;;5051497;28;20267;-72
2022/05/07 14:03:49;;;;;;;22.40;8.02;;;;;;;;;;5051206;28;20473;-71
2022/05/07 14:06:17;;;;;;;18.10;10.73;;;;;;;;;;5051495;28;20112;-70
2022/05/07 14:08:42;;;;;;;17.60;10.13;;;;;;;;;;5051131;28;20827;-73
2022/05/07 14:11:08;;;;;;;21.52;9.43;;;;;;;;;;5050949;28;20104;-72
2022/05/07 14:13:33;;;;;;;19.17;9.63;;;;;;;;;;5048984;28;20043;-72
2022/05/07 14:15:59;;;;;;;17.02;8.68;;;;;;;;;;5050148;28;20025;-72
2022/05/07 14:18:24;;;;;;;18.73;8.53;;;;;;;;;;5045774;28;20082;-72
2022/05/07 14:20:50;;;;;;;15.10;9.17;;;;;;;;;;5051499;28;20066;-71
2022/05/07 14:23:16;;;;;;;15.38;7.20;;;;;;;;;;5048548;28;20107;-71
2022/05/07 14:25:41;;;;;;;14.27;7.90;;;;;;;;;;5050850;28;20101;-72
2022/05/07 14:28:07;;;;;;;18.98;7.80;;;;;;;;;;5049488;28;20048;-70
2022/05/07 14:30:32;;;;;;;17.50;6.57;;;;;;;;;;5043306;28;20108;-72
2022/05/07 14:32:57;;;;;;;16.03;7.27;;;;;;;;;;5050310;28;20320;-72
2022/05/07 14:35:22;;;;;;;16.48;8.02;;;;;;;;;;5050145;28;20620;-73
2022/05/07 14:37:48;;;;;;;17.20;7.97;;;;;;;;;;5048282;28;20028;-73
2022/05/07 14:40:31;;;;;;;17.60;7.27;;;;;;;;;;5049835;28;20267;-73
2022/05/07 14:43:01;;;;;;;18.90;10.13;;;;;;;;;;5046367;28;20115;-71
2022/05/07 14:45:26;;;;;;;24.77;9.48;;;;;;;;;;5045671;28;20024;-71
2022/05/07 14:47:51;;;;;;;20.38;7.85;;;;;;;;;;5031430;28;20033;-72
2022/05/07 14:50:17;;;;;;;15.88;7.95;;;;;;;;;;5049930;28;20028;-72
2022/05/07 14:52:42;;;;;;;20.53;8.83;;;;;;;;;;5049690;28;20017;-72